createdAt,value
2018-05-04T00:02:40.096Z,4.63
2018-05-04T00:08:45.417Z,4.50
2018-05-04T00:14:49.436Z,5.50
2018-05-04T00:20:52.717Z,7.03
2018-05-04T00:26:56.784Z,5.40
2018-05-04T00:33:00.804Z,5.27
2018-05-04T00:39:04.080Z,6.93
2018-05-04T00:45:07.359Z,6.10
2018-05-04T00:51:10.635Z,5.80
2018-05-04T00:57:13.912Z,6.73
2018-05-04T01:03:17.188Z,8.57
2018-05-04T01:09:21.206Z,6.03
2018-05-04T01:15:24.484Z,5.70
2018-05-04T01:21:28.520Z,7.00
2018-05-04T01:27:31.803Z,9.93
2018-05-04T01:33:35.845Z,15.23
2018-05-04T01:39:39.138Z,6.03
2018-05-04T01:45:42.425Z,9.97
2018-05-04T01:51:45.701Z,8.23
2018-05-04T01:57:49.726Z,11.60
2018-05-04T02:03:53.003Z,6.30
2018-05-04T02:09:56.280Z,8.97
2018-05-04T02:15:59.552Z,8.33
2018-05-04T02:22:02.837Z,8.73
2018-05-04T02:28:06.109Z,8.47
2018-05-04T02:34:09.398Z,10.80
2018-05-04T02:40:12.685Z,5.57
2018-05-04T02:46:16.695Z,9.57
2018-05-04T02:52:19.975Z,7.23
2018-05-04T02:58:23.260Z,8.30
2018-05-04T03:04:26.539Z,7.30
2018-05-04T03:10:29.812Z,9.07
2018-05-04T03:16:33.083Z,6.73
2018-05-04T03:22:37.115Z,6.47
2018-05-04T03:28:40.400Z,5.83
2018-05-04T03:34:44.436Z,4.97
2018-05-04T03:40:47.712Z,4.90
2018-05-04T03:46:51.741Z,4.93
2018-05-04T03:52:55.027Z,7.17
2018-05-04T03:59:16.298Z,8.00
2018-05-04T04:05:19.579Z,8.23
2018-05-04T04:11:22.865Z,7.83
2018-05-04T04:17:26.226Z,9.43
2018-05-04T04:23:30.247Z,7.27
2018-05-04T04:29:33.536Z,5.27
2018-05-04T04:35:37.554Z,14.70
2018-05-04T04:41:40.855Z,9.33
2018-05-04T04:47:44.148Z,11.23
2018-05-04T04:53:47.427Z,8.00
2018-05-04T04:59:50.715Z,15.27
2018-05-04T05:05:54.007Z,14.97
2018-05-04T05:11:57.280Z,7.63
2018-05-04T05:18:01.295Z,8.10
2018-05-04T05:24:04.580Z,11.43
2018-05-04T05:30:08.623Z,10.73
2018-05-04T05:36:11.992Z,12.10
2018-05-04T05:42:16.005Z,7.97
2018-05-04T05:48:19.285Z,8.47
2018-05-04T05:54:22.565Z,10.30
2018-05-04T06:00:25.848Z,9.67
2018-05-04T06:06:29.129Z,13.77
2018-05-04T06:12:32.424Z,8.00
2018-05-04T06:18:35.785Z,11.67
2018-05-04T06:24:39.080Z,17.10
2018-05-04T06:30:43.104Z,17.03
2018-05-04T06:36:46.385Z,16.80
2018-05-04T06:42:49.663Z,15.93
2018-05-04T06:48:52.961Z,13.40
2018-05-04T06:54:56.243Z,12.53
2018-05-04T07:01:00.266Z,12.57
2018-05-04T07:07:04.298Z,10.33
2018-05-04T07:13:07.591Z,8.17
2018-05-04T07:19:11.222Z,20.07
2018-05-04T07:25:15.301Z,95.47
2018-05-04T07:31:18.583Z,99.83
2018-05-04T07:37:22.605Z,88.40
2018-05-04T07:43:25.899Z,69.63
2018-05-04T07:49:29.926Z,53.10
2018-05-04T07:55:34.049Z,37.27
2018-05-04T08:01:37.345Z,16.87
2018-05-04T08:07:40.638Z,13.43
2018-05-04T08:13:43.913Z,10.97
2018-05-04T08:19:47.194Z,10.10
2018-05-04T08:25:51.208Z,11.57
2018-05-04T08:31:54.508Z,10.43
2018-05-04T08:37:58.528Z,8.37
2018-05-04T08:44:01.994Z,6.40
2018-05-04T08:50:06.806Z,8.27
2018-05-04T08:56:10.833Z,8.80
2018-05-04T09:02:14.129Z,113.07
2018-05-04T09:08:17.412Z,79.90
2018-05-04T09:14:20.700Z,83.23
2018-05-04T09:20:24.722Z,38.93
2018-05-04T09:31:55.707Z,18.13
2018-05-04T09:38:00.485Z,17.07
2018-05-04T09:44:05.251Z,14.27
2018-05-04T09:50:08.544Z,10.27
2018-05-04T09:56:12.640Z,5.97
2018-05-04T10:02:16.628Z,7.33
2018-05-04T10:08:19.903Z,6.67
2018-05-04T10:21:09.682Z,5.67
2018-05-04T10:27:12.965Z,8.07
2018-05-04T10:33:16.983Z,86.73
2018-05-04T10:39:20.263Z,85.77
2018-05-04T10:45:23.541Z,79.77
2018-05-04T10:51:26.841Z,102.70
2018-05-04T10:57:30.178Z,150.37
2018-05-04T11:03:33.482Z,193.97
2018-05-04T11:09:36.791Z,225.17
2018-05-04T11:15:40.093Z,201.10
2018-05-04T11:21:43.387Z,199.90
2018-05-04T11:27:46.699Z,181.47
2018-05-04T11:33:49.999Z,161.30
2018-05-04T11:39:54.035Z,152.37
2018-05-04T11:45:58.803Z,59.03
2018-05-04T11:52:02.105Z,106.73
2018-05-04T11:58:05.404Z,181.97
2018-05-04T12:04:08.705Z,158.10
2018-05-04T12:10:12.005Z,198.83
2018-05-04T12:16:15.306Z,194.90
2018-05-04T12:22:18.587Z,170.77
2018-05-04T12:28:21.909Z,164.17
2018-05-04T12:34:25.212Z,145.87
2018-05-04T12:40:29.259Z,137.13
2018-05-04T12:46:33.320Z,123.57
2018-05-04T12:52:36.623Z,110.27
2018-05-04T12:58:39.943Z,102.80
2018-05-04T13:04:43.977Z,94.47
2018-05-04T13:10:47.262Z,89.83
2018-05-04T13:16:50.553Z,84.63
2018-05-04T13:22:53.840Z,70.83
2018-05-04T13:28:57.897Z,66.13
2018-05-04T13:35:01.929Z,56.37
2018-05-04T13:41:05.203Z,56.50
2018-05-04T13:47:09.236Z,51.33
2018-05-04T13:53:12.535Z,52.23
2018-05-04T13:59:15.823Z,48.93
2018-05-04T14:05:19.114Z,47.10
2018-05-04T14:11:23.201Z,44.90
2018-05-04T14:17:26.481Z,44.23
2018-05-04T14:23:29.756Z,41.27
2018-05-04T14:29:33.040Z,41.57
2018-05-04T14:35:36.331Z,39.00
2018-05-04T14:41:39.645Z,47.27
2018-05-04T14:47:42.961Z,59.20
2018-05-04T14:53:46.989Z,68.03
2018-05-04T14:59:50.278Z,75.03
2018-05-04T15:05:54.329Z,91.57
2018-05-04T15:11:58.392Z,100.27
2018-05-04T15:18:01.682Z,107.20
2018-05-04T15:24:04.988Z,138.57
2018-05-04T15:30:09.037Z,142.53
2018-05-04T15:36:12.336Z,150.53
2018-05-04T15:42:15.645Z,158.53
2018-05-04T15:48:24.537Z,166.03
2018-05-04T15:54:28.589Z,166.20
2018-05-04T16:00:31.944Z,166.07
2018-05-04T16:06:35.979Z,166.33
2018-05-04T16:12:39.288Z,163.70
2018-05-04T16:18:42.602Z,159.13
2018-05-04T16:24:46.646Z,156.97
2018-05-04T16:30:49.942Z,155.53
2018-05-04T16:36:53.227Z,154.47
2018-05-04T16:42:56.519Z,146.90
2018-05-04T16:49:06.031Z,148.67
2018-05-04T16:55:09.367Z,148.70
2018-05-04T17:01:12.664Z,141.73
2018-05-04T17:07:15.956Z,142.43
2018-05-04T17:13:19.243Z,138.07
2018-05-04T17:19:22.537Z,134.67
2018-05-04T17:25:26.573Z,130.90
2018-05-04T17:31:29.881Z,125.97
2018-05-04T17:37:33.168Z,125.67
2018-05-04T17:43:36.475Z,124.80
2018-05-04T17:49:39.796Z,120.63
2018-05-04T17:55:43.114Z,117.27
2018-05-04T18:01:46.423Z,115.83
2018-05-04T18:07:49.718Z,113.63
2018-05-04T18:13:53.004Z,111.47
2018-05-04T18:19:56.289Z,105.80
2018-05-04T18:26:00.323Z,105.97
2018-05-04T18:32:03.611Z,99.60
2018-05-04T18:38:06.919Z,99.17
2018-05-04T18:44:10.234Z,99.67
2018-05-04T18:50:13.531Z,94.13
2018-05-04T18:56:16.838Z,91.80
2018-05-04T19:02:25.799Z,91.30
2018-05-04T19:08:29.835Z,91.90
2018-05-04T19:14:33.201Z,88.67
2018-05-04T19:20:36.449Z,86.83
2018-05-04T19:26:39.782Z,85.37
2018-05-04T19:32:43.869Z,85.07
2018-05-04T19:38:47.899Z,85.33
2018-05-04T19:44:51.180Z,81.70
2018-05-04T19:50:55.213Z,80.57
2018-05-04T19:56:58.490Z,79.97
2018-05-04T20:03:02.525Z,75.37
2018-05-04T20:09:06.539Z,76.37
2018-05-04T20:15:09.830Z,75.70
2018-05-04T20:21:13.115Z,77.13
2018-05-04T20:27:17.147Z,73.77
2018-05-04T20:33:20.426Z,71.47
2018-05-04T20:39:24.462Z,71.73
2018-05-04T20:45:27.739Z,71.53
2018-05-04T20:51:31.827Z,69.67
2018-05-04T20:57:35.116Z,67.03
2018-05-04T21:03:38.565Z,67.17
2018-05-04T21:09:41.926Z,67.40
2018-05-04T21:15:45.252Z,66.33
2018-05-04T21:21:48.552Z,66.23
2018-05-04T21:27:51.835Z,63.10
2018-05-04T21:33:55.128Z,67.50
2018-05-04T21:39:59.159Z,64.57
2018-05-04T21:46:02.451Z,64.40
2018-05-04T21:52:05.769Z,62.67
2018-05-04T21:58:09.093Z,60.50
2018-05-04T22:04:12.383Z,60.93
2018-05-04T22:10:16.406Z,59.43
2018-05-04T22:16:19.697Z,64.90
2018-05-04T22:22:23.733Z,59.43
2018-05-04T22:28:27.024Z,60.77
2018-05-04T22:34:30.312Z,63.10
2018-05-04T22:40:34.347Z,56.47
2018-05-04T22:52:47.079Z,58.93
2018-05-04T22:58:50.371Z,64.60
2018-05-04T23:04:53.651Z,62.93
2018-05-04T23:10:57.677Z,59.47
2018-05-04T23:17:00.957Z,58.10
2018-05-04T23:23:04.991Z,57.20
2018-05-04T23:29:08.278Z,59.00
2018-05-04T23:35:11.567Z,55.97
2018-05-04T23:41:14.856Z,55.27
2018-05-04T23:47:18.144Z,55.40
2018-05-04T23:53:21.419Z,52.00
2018-05-04T23:59:24.706Z,52.50
